Date,TemperatureHighF,TemperatureAvgF,TemperatureLowF,DewpointHighF,DewpointAvgF,DewpointLowF,HumidityHigh,HumidityAvg,HumidityLow,PressureMaxIn,PressureMinIn,WindSpeedMaxMPH,WindSpeedAvgMPH,GustSpeedMaxMPH,PrecipitationSumIn
2012-10-28,45.5,44.7,44.1,37.4,37.0,35.6,78,73,69,29.03,29.00,7,3,13,0.17
2012-10-29,45.1,42.9,38.1,37.4,28.9,23.0,77,58,40,29.00,28.76,36,6,30,0.00
2012-10-30,44.6,39.8,37.9,37.4,34.2,23.0,96,81,43,28.76,28.59,17,8,28,0.12
2012-10-31,48.9,43.1,38.7,37.4,33.0,28.4,96,68,49,28.88,28.70,9,5,13,0.04
2012-11-1,55.0,47.2,38.1,33.8,27.0,19.4,69,47,26,28.91,28.82,12,4,17,0.00
2012-11-2,57.6,50.6,44.2,32.0,28.9,24.8,53,43,36,29.09,28.82,7,2,10,0.00
2012-11-3,50.0,43.2,35.8,41.0,32.3,24.8,91,65,49,29.15,29.00,9,3,13,0.13
2012-11-4,53.8,43.7,37.4,41.0,35.0,30.2,94,73,47,29.15,29.03,8,2,11,0.00
2012-11-5,53.8,41.6,32.7,35.6,29.4,26.6,79,62,45,29.15,29.00,7,2,10,0.00
2012-11-6,55.9,45.5,34.0,35.6,30.2,24.8,71,55,41,29.03,28.88,6,2,9,0.00
2012-11-7,48.7,44.6,39.2,42.8,38.4,32.0,91,77,53,29.09,28.88,6,2,8,0.00
2012-11-8,54.5,43.2,33.8,35.6,30.4,24.8,82,62,38,29.23,29.06,6,1,8,0.00
2012-11-9,63.7,50.0,35.4,41.0,33.1,26.6,75,53,36,29.26,29.12,6,2,10,0.00
2012-11-10,72.3,59.5,48.6,44.6,36.1,32.0,51,41,32,29.26,29.15,9,3,13,0.00
2012-11-11,71.1,60.9,51.6,44.6,37.0,30.2,53,41,30,29.32,29.12,11,3,19,0.00
2012-11-12,61.7,49.6,34.3,57.2,43.3,28.4,95,79,53,29.44,29.06,14,3,21,0.78
2012-11-13,47.8,38.3,31.1,30.2,24.9,21.2,81,60,41,29.47,29.41,6,2,8,0.00
2012-11-14,46.2,37.4,28.8,28.4,24.6,21.2,75,60,48,29.47,29.29,8,3,10,0.00
2012-11-15,51.6,39.7,29.1,32.0,26.0,21.2,78,59,42,29.35,29.23,6,1,7,0.00
2012-11-16,54.0,41.9,32.5,32.0,27.6,24.8,76,57,40,29.44,29.29,6,2,8,0.00
2012-11-17,60.3,45.4,33.8,35.6,28.9,23.0,79,54,35,29.50,29.38,8,3,9,0.00
2012-11-18,63.1,48.5,37.0,33.8,25.3,21.2,57,41,24,29.44,29.32,6,2,9,0.00
2012-11-19,61.0,49.1,36.5,37.4,29.1,21.2,58,46,37,29.35,29.18,5,1,6,0.00
2012-11-20,66.0,55.2,45.7,39.2,35.1,30.2,60,47,36,29.21,29.06,5,1,6,0.00
2012-11-21,65.1,54.4,45.0,42.8,37.0,33.8,72,52,36,29.23,29.09,6,1,8,0.00
2012-11-22,67.8,54.0,40.3,42.8,37.4,32.0,76,54,37,29.21,29.06,8,2,11,0.00
2012-11-23,54.9,48.7,36.0,48.2,33.1,19.4,88,55,38,29.15,29.00,16,6,23,0.00
2012-11-24,39.2,32.6,26.2,21.2,16.5,14.0,63,52,44,29.21,29.12,10,4,13,0.00
2012-11-25,49.6,45.5,41.7,21.2,20.4,19.4,39,36,32,29.03,28.97,4,2,6,0.00
2012-11-26,52.0,43.6,38.1,39.2,27.4,17.6,89,53,39,29.15,29.03,5,2,6,0.00
2012-11-27,42.1,37.5,33.3,41.0,33.6,26.6,95,84,70,29.32,29.12,7,2,12,0.00
2012-11-28,41.5,34.4,30.6,30.2,27.0,21.2,87,75,51,29.44,29.29,9,2,12,0.00
2012-11-29,36.7,31.2,27.7,28.4,22.1,19.4,80,70,61,29.38,29.35,4,1,5,0.00